Etusivu
METAR-TAF:

METAR-TAF

Lentoasemat :

Gatesville Municipal Airport

Gatesville, Texas, Yhdysvallat

Leveyspiiri: 31-25-16N, Pituuspiiri: 097-47-49W, korkeus merenpinnasta: 276 m

Tämänhetkinen sää

Tämä raportti tehtiin 27 minuuttia sitten, kello 00.35 UTC
Tuuli 5 kn etelästä/kaakosta
Lämpötila 29°C
Kosteus 55%
Ilmanpaine 1017 hPa
Näkyvyys: 16.1 km
selkeää

METAR: KGOP 030035Z AUTO 16005KT 10SM CLR 29/19 A3002 RMK AO2

Aika: 20:02 (01:02 UTC)


TAF: puuttuu

Säähavainnot ja -ennusteet yli 4000 lentoasemalta (METAR- ja TAF-raportit).

Käytössä olevat sääasemat on merkitty karttaan keltaisilla ja punaisilla pisteillä.

Aseta hiiri pisteen päälle nähdäksesi sääaseman nimen.

Klikkaa sitten nähdäksesi säähavainnot ja -ennusteet.

Kartan vaihtaminen: klikkaa mustalla rastilla varustettuja vihreitä pisteitä, niin voit zoomata sisään; viivalla varustettua vihreää pistettä, niin voit zoomata ulos tai vihreitä nuolia, niin pääset viereisille kartoille.


METAR-TAF: